sensor_id;sensor_type;location;lat;lon;timestamp;P1;durP1;ratioP1;P2;durP2;ratioP2
24826;SDS011;12910;57.690;11.974;2022-08-19T00:00:35;13.20;;;12.00;;
24826;SDS011;12910;57.690;11.974;2022-08-19T00:03:02;13.43;;;12.20;;
24826;SDS011;12910;57.690;11.974;2022-08-19T00:05:28;12.03;;;11.03;;
24826;SDS011;12910;57.690;11.974;2022-08-19T00:07:53;11.27;;;10.23;;
24826;SDS011;12910;57.690;11.974;2022-08-19T00:10:19;13.87;;;10.20;;
24826;SDS011;12910;57.690;11.974;2022-08-19T00:12:45;20.40;;;13.43;;
24826;SDS011;12910;57.690;11.974;2022-08-19T00:15:13;14.20;;;11.37;;
24826;SDS011;12910;57.690;11.974;2022-08-19T00:17:41;12.17;;;11.07;;
24826;SDS011;12910;57.690;11.974;2022-08-19T00:20:08;19.97;;;12.27;;
24826;SDS011;12910;57.690;11.974;2022-08-19T00:22:37;12.30;;;11.23;;
24826;SDS011;12910;57.690;11.974;2022-08-19T00:25:03;25.10;;;12.13;;
24826;SDS011;12910;57.690;11.974;2022-08-19T00:27:31;18.17;;;13.37;;
24826;SDS011;12910;57.690;11.974;2022-08-19T00:29:57;13.53;;;11.70;;
24826;SDS011;12910;57.690;11.974;2022-08-19T00:32:23;12.63;;;11.17;;
24826;SDS011;12910;57.690;11.974;2022-08-19T00:34:50;12.13;;;10.90;;
24826;SDS011;12910;57.690;11.974;2022-08-19T00:37:17;14.47;;;12.87;;
24826;SDS011;12910;57.690;11.974;2022-08-19T00:39:44;11.97;;;10.97;;
24826;SDS011;12910;57.690;11.974;2022-08-19T00:42:09;13.23;;;12.27;;
24826;SDS011;12910;57.690;11.974;2022-08-19T00:44:35;12.23;;;11.30;;
24826;SDS011;12910;57.690;11.974;2022-08-19T00:47:00;13.60;;;12.60;;
24826;SDS011;12910;57.690;11.974;2022-08-19T00:49:34;16.03;;;11.93;;
24826;SDS011;12910;57.690;11.974;2022-08-19T00:52:17;15.53;;;13.70;;
24826;SDS011;12910;57.690;11.974;2022-08-19T00:54:47;13.30;;;12.17;;
24826;SDS011;12910;57.690;11.974;2022-08-19T00:57:15;16.17;;;14.60;;
24826;SDS011;12910;57.690;11.974;2022-08-19T00:59:45;15.87;;;13.70;;
24826;SDS011;12910;57.690;11.974;2022-08-19T01:02:15;15.70;;;13.43;;
24826;SDS011;12910;57.690;11.974;2022-08-19T01:04:41;15.13;;;13.90;;
24826;SDS011;12910;57.690;11.974;2022-08-19T01:07:07;14.63;;;13.33;;
24826;SDS011;12910;57.690;11.974;2022-08-19T01:09:32;21.50;;;15.00;;
24826;SDS011;12910;57.690;11.974;2022-08-19T01:11:58;20.00;;;16.40;;
24826;SDS011;12910;57.690;11.974;2022-08-19T01:14:24;15.60;;;14.00;;
24826;SDS011;12910;57.690;11.974;2022-08-19T01:16:50;17.13;;;14.23;;
24826;SDS011;12910;57.690;11.974;2022-08-19T01:19:29;19.93;;;14.23;;
24826;SDS011;12910;57.690;11.974;2022-08-19T01:22:03;22.77;;;14.83;;
24826;SDS011;12910;57.690;11.974;2022-08-19T01:24:33;15.03;;;13.67;;
24826;SDS011;12910;57.690;11.974;2022-08-19T01:26:59;16.10;;;14.60;;
24826;SDS011;12910;57.690;11.974;2022-08-19T01:29:24;25.40;;;14.87;;
24826;SDS011;12910;57.690;11.974;2022-08-19T01:31:50;16.63;;;15.00;;
24826;SDS011;12910;57.690;11.974;2022-08-19T01:34:18;19.93;;;14.00;;
24826;SDS011;12910;57.690;11.974;2022-08-19T01:36:45;31.00;;;15.07;;
24826;SDS011;12910;57.690;11.974;2022-08-19T01:39:14;24.30;;;13.77;;
24826;SDS011;12910;57.690;11.974;2022-08-19T01:41:44;25.03;;;16.43;;
24826;SDS011;12910;57.690;11.974;2022-08-19T01:44:09;17.33;;;15.60;;
24826;SDS011;12910;57.690;11.974;2022-08-19T01:46:36;21.73;;;16.50;;
24826;SDS011;12910;57.690;11.974;2022-08-19T01:49:03;24.33;;;15.63;;
24826;SDS011;12910;57.690;11.974;2022-08-19T01:51:30;43.20;;;16.37;;
24826;SDS011;12910;57.690;11.974;2022-08-19T01:53:56;27.50;;;16.27;;
24826;SDS011;12910;57.690;11.974;2022-08-19T01:56:22;22.13;;;15.13;;
24826;SDS011;12910;57.690;11.974;2022-08-19T01:58:49;19.63;;;15.40;;
24826;SDS011;12910;57.690;11.974;2022-08-19T02:01:20;18.33;;;16.23;;
24826;SDS011;12910;57.690;11.974;2022-08-19T02:03:46;28.83;;;14.67;;
24826;SDS011;12910;57.690;11.974;2022-08-19T02:06:11;21.40;;;13.57;;
24826;SDS011;12910;57.690;11.974;2022-08-19T02:08:37;15.30;;;13.90;;
24826;SDS011;12910;57.690;11.974;2022-08-19T02:11:04;53.13;;;14.73;;
24826;SDS011;12910;57.690;11.974;2022-08-19T02:13:29;17.83;;;13.90;;
24826;SDS011;12910;57.690;11.974;2022-08-19T02:15:55;30.37;;;15.00;;
24826;SDS011;12910;57.690;11.974;2022-08-19T02:18:21;27.50;;;14.17;;
24826;SDS011;12910;57.690;11.974;2022-08-19T02:20:46;21.57;;;14.47;;
24826;SDS011;12910;57.690;11.974;2022-08-19T02:23:13;25.67;;;14.33;;
24826;SDS011;12910;57.690;11.974;2022-08-19T02:25:39;21.93;;;15.40;;
24826;SDS011;12910;57.690;11.974;2022-08-19T02:28:05;16.47;;;14.77;;
24826;SDS011;12910;57.690;11.974;2022-08-19T02:30:31;27.40;;;14.80;;
24826;SDS011;12910;57.690;11.974;2022-08-19T02:32:57;32.60;;;15.33;;
24826;SDS011;12910;57.690;11.974;2022-08-19T02:35:23;24.27;;;15.73;;
24826;SDS011;12910;57.690;11.974;2022-08-19T02:37:48;35.17;;;15.97;;
24826;SDS011;12910;57.690;11.974;2022-08-19T02:40:32;27.77;;;14.33;;
24826;SDS011;12910;57.690;11.974;2022-08-19T02:43:01;20.67;;;13.90;;
24826;SDS011;12910;57.690;11.974;2022-08-19T02:45:32;22.57;;;13.97;;
24826;SDS011;12910;57.690;11.974;2022-08-19T02:48:02;13.50;;;12.27;;
24826;SDS011;12910;57.690;11.974;2022-08-19T02:50:28;19.47;;;13.27;;
24826;SDS011;12910;57.690;11.974;2022-08-19T02:52:53;29.73;;;15.40;;
24826;SDS011;12910;57.690;11.974;2022-08-19T02:55:19;21.47;;;13.97;;
24826;SDS011;12910;57.690;11.974;2022-08-19T02:57:45;30.43;;;13.57;;
24826;SDS011;12910;57.690;11.974;2022-08-19T03:00:11;20.90;;;14.50;;
24826;SDS011;12910;57.690;11.974;2022-08-19T03:02:37;26.07;;;14.47;;
24826;SDS011;12910;57.690;11.974;2022-08-19T03:05:04;24.50;;;13.90;;
24826;SDS011;12910;57.690;11.974;2022-08-19T03:07:31;17.10;;;14.30;;
24826;SDS011;12910;57.690;11.974;2022-08-19T03:09:56;13.33;;;12.13;;
24826;SDS011;12910;57.690;11.974;2022-08-19T03:12:22;14.90;;;13.43;;
24826;SDS011;12910;57.690;11.974;2022-08-19T03:14:47;13.90;;;11.73;;
24826;SDS011;12910;57.690;11.974;2022-08-19T03:17:12;16.17;;;12.43;;
24826;SDS011;12910;57.690;11.974;2022-08-19T03:19:38;14.97;;;11.57;;
24826;SDS011;12910;57.690;11.974;2022-08-19T03:22:04;13.10;;;11.83;;
24826;SDS011;12910;57.690;11.974;2022-08-19T03:24:30;12.40;;;11.17;;
24826;SDS011;12910;57.690;11.974;2022-08-19T03:26:56;12.97;;;11.57;;
24826;SDS011;12910;57.690;11.974;2022-08-19T03:29:23;13.03;;;11.93;;
24826;SDS011;12910;57.690;11.974;2022-08-19T03:31:49;12.57;;;11.37;;
24826;SDS011;12910;57.690;11.974;2022-08-19T03:34:20;13.37;;;11.07;;
24826;SDS011;12910;57.690;11.974;2022-08-19T03:36:51;14.90;;;11.07;;
24826;SDS011;12910;57.690;11.974;2022-08-19T03:39:16;11.03;;;10.07;;
24826;SDS011;12910;57.690;11.974;2022-08-19T03:41:43;12.33;;;11.27;;
24826;SDS011;12910;57.690;11.974;2022-08-19T03:44:10;11.00;;;10.00;;
24826;SDS011;12910;57.690;11.974;2022-08-19T03:46:35;13.80;;;12.33;;
24826;SDS011;12910;57.690;11.974;2022-08-19T03:49:02;15.30;;;12.23;;
24826;SDS011;12910;57.690;11.974;2022-08-19T03:51:35;16.20;;;11.37;;
24826;SDS011;12910;57.690;11.974;2022-08-19T03:54:04;12.27;;;9.73;;
24826;SDS011;12910;57.690;11.974;2022-08-19T03:56:33;11.27;;;10.10;;
24826;SDS011;12910;57.690;11.974;2022-08-19T03:59:00;17.57;;;11.80;;
24826;SDS011;12910;57.690;11.974;2022-08-19T04:01:26;12.23;;;9.57;;
24826;SDS011;12910;57.690;11.974;2022-08-19T04:03:53;10.23;;;9.33;;
24826;SDS011;12910;57.690;11.974;2022-08-19T04:06:20;18.23;;;11.33;;
24826;SDS011;12910;57.690;11.974;2022-08-19T04:08:49;17.13;;;11.57;;
24826;SDS011;12910;57.690;11.974;2022-08-19T04:11:20;12.47;;;10.97;;
24826;SDS011;12910;57.690;11.974;2022-08-19T04:13:47;12.37;;;11.27;;
24826;SDS011;12910;57.690;11.974;2022-08-19T04:16:13;13.80;;;11.23;;
24826;SDS011;12910;57.690;11.974;2022-08-19T04:18:39;12.77;;;11.77;;
24826;SDS011;12910;57.690;11.974;2022-08-19T04:21:06;16.17;;;12.90;;
24826;SDS011;12910;57.690;11.974;2022-08-19T04:23:33;13.50;;;12.30;;
24826;SDS011;12910;57.690;11.974;2022-08-19T04:25:59;16.73;;;13.13;;
24826;SDS011;12910;57.690;11.974;2022-08-19T04:28:24;15.50;;;14.10;;
24826;SDS011;12910;57.690;11.974;2022-08-19T04:30:51;15.37;;;12.87;;
24826;SDS011;12910;57.690;11.974;2022-08-19T04:33:19;13.80;;;12.43;;
24826;SDS011;12910;57.690;11.974;2022-08-19T04:35:48;14.40;;;12.40;;
24826;SDS011;12910;57.690;11.974;2022-08-19T04:38:15;17.33;;;14.43;;
24826;SDS011;12910;57.690;11.974;2022-08-19T04:40:45;18.63;;;14.57;;
24826;SDS011;12910;57.690;11.974;2022-08-19T04:43:30;14.37;;;12.73;;
24826;SDS011;12910;57.690;11.974;2022-08-19T04:45:57;19.23;;;14.83;;
24826;SDS011;12910;57.690;11.974;2022-08-19T04:48:23;15.77;;;14.37;;
24826;SDS011;12910;57.690;11.974;2022-08-19T04:50:52;15.03;;;13.57;;
24826;SDS011;12910;57.690;11.974;2022-08-19T04:53:23;14.97;;;13.67;;
24826;SDS011;12910;57.690;11.974;2022-08-19T04:55:53;19.57;;;13.80;;
24826;SDS011;12910;57.690;11.974;2022-08-19T04:58:20;17.27;;;15.20;;
24826;SDS011;12910;57.690;11.974;2022-08-19T05:00:45;15.27;;;13.87;;
24826;SDS011;12910;57.690;11.974;2022-08-19T05:03:10;17.57;;;15.97;;
24826;SDS011;12910;57.690;11.974;2022-08-19T05:05:40;24.03;;;16.27;;
24826;SDS011;12910;57.690;11.974;2022-08-19T05:08:06;14.50;;;13.60;;
24826;SDS011;12910;57.690;11.974;2022-08-19T05:10:34;20.77;;;14.13;;
24826;SDS011;12910;57.690;11.974;2022-08-19T05:13:04;26.87;;;16.33;;
24826;SDS011;12910;57.690;11.974;2022-08-19T05:15:30;22.33;;;15.13;;
24826;SDS011;12910;57.690;11.974;2022-08-19T05:17:56;17.10;;;12.77;;
24826;SDS011;12910;57.690;11.974;2022-08-19T05:20:40;22.93;;;15.90;;
24826;SDS011;12910;57.690;11.974;2022-08-19T05:23:24;25.00;;;16.40;;
24826;SDS011;12910;57.690;11.974;2022-08-19T05:25:50;16.93;;;15.63;;
24826;SDS011;12910;57.690;11.974;2022-08-19T05:28:16;22.27;;;14.90;;
24826;SDS011;12910;57.690;11.974;2022-08-19T05:30:43;18.87;;;15.07;;
24826;SDS011;12910;57.690;11.974;2022-08-19T05:33:09;14.90;;;13.70;;
24826;SDS011;12910;57.690;11.974;2022-08-19T05:35:37;15.57;;;13.77;;
24826;SDS011;12910;57.690;11.974;2022-08-19T05:38:04;17.10;;;14.03;;
24826;SDS011;12910;57.690;11.974;2022-08-19T05:40:33;13.97;;;12.80;;
24826;SDS011;12910;57.690;11.974;2022-08-19T05:43:01;13.83;;;12.77;;
24826;SDS011;12910;57.690;11.974;2022-08-19T05:45:27;13.90;;;12.60;;
24826;SDS011;12910;57.690;11.974;2022-08-19T05:47:52;17.30;;;12.27;;
24826;SDS011;12910;57.690;11.974;2022-08-19T05:50:18;12.40;;;11.50;;
24826;SDS011;12910;57.690;11.974;2022-08-19T05:52:44;11.20;;;10.20;;
24826;SDS011;12910;57.690;11.974;2022-08-19T05:55:10;11.53;;;10.83;;
24826;SDS011;12910;57.690;11.974;2022-08-19T05:57:35;10.20;;;9.50;;
24826;SDS011;12910;57.690;11.974;2022-08-19T06:00:01;11.57;;;10.77;;
24826;SDS011;12910;57.690;11.974;2022-08-19T06:02:32;12.40;;;11.60;;
24826;SDS011;12910;57.690;11.974;2022-08-19T06:04:58;11.90;;;11.13;;
24826;SDS011;12910;57.690;11.974;2022-08-19T06:07:23;11.37;;;10.57;;
24826;SDS011;12910;57.690;11.974;2022-08-19T06:09:49;11.27;;;10.50;;
24826;SDS011;12910;57.690;11.974;2022-08-19T06:12:14;11.00;;;10.07;;
24826;SDS011;12910;57.690;11.974;2022-08-19T06:14:40;9.93;;;9.33;;
24826;SDS011;12910;57.690;11.974;2022-08-19T06:17:06;9.83;;;9.13;;
24826;SDS011;12910;57.690;11.974;2022-08-19T06:19:31;8.23;;;7.73;;
24826;SDS011;12910;57.690;11.974;2022-08-19T06:21:57;9.80;;;9.20;;
24826;SDS011;12910;57.690;11.974;2022-08-19T06:24:25;8.90;;;8.03;;
24826;SDS011;12910;57.690;11.974;2022-08-19T06:26:52;8.27;;;7.57;;
24826;SDS011;12910;57.690;11.974;2022-08-19T06:29:20;8.18;;;7.68;;
24826;SDS011;12910;57.690;11.974;2022-08-19T06:31:49;8.70;;;8.20;;
24826;SDS011;12910;57.690;11.974;2022-08-19T06:34:17;8.20;;;7.70;;
24826;SDS011;12910;57.690;11.974;2022-08-19T06:36:45;8.40;;;7.80;;
24826;SDS011;12910;57.690;11.974;2022-08-19T06:39:17;8.98;;;8.38;;
24826;SDS011;12910;57.690;11.974;2022-08-19T06:41:45;8.48;;;7.93;;
24826;SDS011;12910;57.690;11.974;2022-08-19T06:44:12;8.13;;;7.63;;
24826;SDS011;12910;57.690;11.974;2022-08-19T06:46:38;8.82;;;8.32;;
24826;SDS011;12910;57.690;11.974;2022-08-19T06:49:05;8.10;;;7.60;;
24826;SDS011;12910;57.690;11.974;2022-08-19T06:51:33;7.82;;;7.32;;
24826;SDS011;12910;57.690;11.974;2022-08-19T06:53:59;7.63;;;7.22;;
24826;SDS011;12910;57.690;11.974;2022-08-19T06:56:26;9.02;;;8.38;;
24826;SDS011;12910;57.690;11.974;2022-08-19T06:58:58;8.98;;;8.10;;
24826;SDS011;12910;57.690;11.974;2022-08-19T07:01:25;9.00;;;8.50;;
24826;SDS011;12910;57.690;11.974;2022-08-19T07:03:51;9.07;;;8.35;;
24826;SDS011;12910;57.690;11.974;2022-08-19T07:06:17;8.43;;;8.02;;
24826;SDS011;12910;57.690;11.974;2022-08-19T07:08:45;8.90;;;8.43;;
24826;SDS011;12910;57.690;11.974;2022-08-19T07:11:12;8.25;;;7.57;;
24826;SDS011;12910;57.690;11.974;2022-08-19T07:13:39;7.88;;;7.47;;
24826;SDS011;12910;57.690;11.974;2022-08-19T07:16:09;7.50;;;7.00;;
24826;SDS011;12910;57.690;11.974;2022-08-19T07:18:36;8.18;;;7.78;;
24826;SDS011;12910;57.690;11.974;2022-08-19T07:21:10;8.00;;;7.60;;
24826;SDS011;12910;57.690;11.974;2022-08-19T07:23:37;7.00;;;6.70;;
24826;SDS011;12910;57.690;11.974;2022-08-19T07:26:08;6.78;;;6.47;;
24826;SDS011;12910;57.690;11.974;2022-08-19T07:28:48;8.10;;;7.70;;
24826;SDS011;12910;57.690;11.974;2022-08-19T07:31:17;8.90;;;8.50;;
24826;SDS011;12910;57.690;11.974;2022-08-19T07:33:45;7.47;;;7.07;;
24826;SDS011;12910;57.690;11.974;2022-08-19T07:36:13;6.90;;;6.55;;
24826;SDS011;12910;57.690;11.974;2022-08-19T07:38:43;6.28;;;5.97;;
24826;SDS011;12910;57.690;11.974;2022-08-19T07:41:14;6.78;;;6.47;;
24826;SDS011;12910;57.690;11.974;2022-08-19T07:43:44;7.30;;;6.88;;
24826;SDS011;12910;57.690;11.974;2022-08-19T07:46:12;9.02;;;8.52;;
24826;SDS011;12910;57.690;11.974;2022-08-19T07:48:41;8.02;;;7.63;;
24826;SDS011;12910;57.690;11.974;2022-08-19T07:51:18;7.80;;;7.40;;
24826;SDS011;12910;57.690;11.974;2022-08-19T07:53:47;7.57;;;7.18;;
24826;SDS011;12910;57.690;11.974;2022-08-19T07:56:19;7.25;;;6.75;;
24826;SDS011;12910;57.690;11.974;2022-08-19T07:58:47;7.22;;;6.93;;
24826;SDS011;12910;57.690;11.974;2022-08-19T08:01:20;7.55;;;6.80;;
24826;SDS011;12910;57.690;11.974;2022-08-19T08:03:49;6.60;;;6.28;;
24826;SDS011;12910;57.690;11.974;2022-08-19T08:06:36;9.32;;;7.65;;
24826;SDS011;12910;57.690;11.974;2022-08-19T08:09:23;7.32;;;6.95;;
24826;SDS011;12910;57.690;11.974;2022-08-19T08:11:58;7.90;;;7.57;;
24826;SDS011;12910;57.690;11.974;2022-08-19T08:14:28;8.05;;;7.40;;
24826;SDS011;12910;57.690;11.974;2022-08-19T08:16:56;8.15;;;7.75;;
24826;SDS011;12910;57.690;11.974;2022-08-19T08:19:22;8.93;;;8.25;;
24826;SDS011;12910;57.690;11.974;2022-08-19T08:21:51;6.88;;;6.57;;
24826;SDS011;12910;57.690;11.974;2022-08-19T08:24:23;8.35;;;7.85;;
24826;SDS011;12910;57.690;11.974;2022-08-19T08:26:52;8.23;;;7.82;;
24826;SDS011;12910;57.690;11.974;2022-08-19T08:29:19;9.20;;;8.52;;
24826;SDS011;12910;57.690;11.974;2022-08-19T08:31:46;7.93;;;7.50;;
24826;SDS011;12910;57.690;11.974;2022-08-19T08:34:14;6.88;;;6.47;;
24826;SDS011;12910;57.690;11.974;2022-08-19T08:36:43;14.10;;;7.20;;
24826;SDS011;12910;57.690;11.974;2022-08-19T08:39:12;8.18;;;7.78;;
24826;SDS011;12910;57.690;11.974;2022-08-19T08:44:27;7.97;;;7.57;;
24826;SDS011;12910;57.690;11.974;2022-08-19T08:47:03;9.40;;;7.53;;
24826;SDS011;12910;57.690;11.974;2022-08-19T08:49:57;7.55;;;6.72;;
24826;SDS011;12910;57.690;11.974;2022-08-19T08:52:27;7.38;;;7.07;;
24826;SDS011;12910;57.690;11.974;2022-08-19T08:54:57;8.02;;;7.63;;
24826;SDS011;12910;57.690;11.974;2022-08-19T09:03:26;7.78;;;7.28;;
24826;SDS011;12910;57.690;11.974;2022-08-19T09:05:58;8.07;;;7.68;;
24826;SDS011;12910;57.690;11.974;2022-08-19T09:11:22;7.03;;;6.53;;
24826;SDS011;12910;57.690;11.974;2022-08-19T09:16:32;7.03;;;6.30;;
24826;SDS011;12910;57.690;11.974;2022-08-19T09:19:02;7.72;;;7.43;;
24826;SDS011;12910;57.690;11.974;2022-08-19T09:21:30;6.72;;;6.32;;
24826;SDS011;12910;57.690;11.974;2022-08-19T09:23:57;8.05;;;7.63;;
24826;SDS011;12910;57.690;11.974;2022-08-19T09:26:23;7.35;;;6.95;;
24826;SDS011;12910;57.690;11.974;2022-08-19T09:28:50;9.35;;;7.35;;
24826;SDS011;12910;57.690;11.974;2022-08-19T09:31:25;8.02;;;7.63;;
24826;SDS011;12910;57.690;11.974;2022-08-19T09:33:53;7.90;;;7.30;;
24826;SDS011;12910;57.690;11.974;2022-08-19T09:36:22;7.22;;;6.70;;
24826;SDS011;12910;57.690;11.974;2022-08-19T09:38:49;8.38;;;7.63;;
24826;SDS011;12910;57.690;11.974;2022-08-19T09:41:21;8.60;;;8.10;;
24826;SDS011;12910;57.690;11.974;2022-08-19T09:43:51;8.82;;;7.05;;
24826;SDS011;12910;57.690;11.974;2022-08-19T09:46:20;10.48;;;7.20;;
24826;SDS011;12910;57.690;11.974;2022-08-19T09:48:49;8.80;;;8.07;;
24826;SDS011;12910;57.690;11.974;2022-08-19T09:51:17;8.07;;;7.30;;
24826;SDS011;12910;57.690;11.974;2022-08-19T09:53:50;7.80;;;7.25;;
24826;SDS011;12910;57.690;11.974;2022-08-19T09:56:20;8.10;;;7.25;;
24826;SDS011;12910;57.690;11.974;2022-08-19T09:58:47;8.55;;;8.00;;
24826;SDS011;12910;57.690;11.974;2022-08-19T10:01:22;10.07;;;7.63;;
24826;SDS011;12910;57.690;11.974;2022-08-19T10:03:52;7.40;;;6.90;;
24826;SDS011;12910;57.690;11.974;2022-08-19T10:06:25;7.95;;;7.55;;
24826;SDS011;12910;57.690;11.974;2022-08-19T10:08:56;8.15;;;7.50;;
24826;SDS011;12910;57.690;11.974;2022-08-19T10:11:25;7.85;;;7.15;;
24826;SDS011;12910;57.690;11.974;2022-08-19T10:13:54;7.85;;;7.13;;
24826;SDS011;12910;57.690;11.974;2022-08-19T10:16:22;7.85;;;7.35;;
24826;SDS011;12910;57.690;11.974;2022-08-19T10:18:51;7.00;;;6.50;;
24826;SDS011;12910;57.690;11.974;2022-08-19T10:21:20;7.22;;;6.82;;
24826;SDS011;12910;57.690;11.974;2022-08-19T10:23:56;6.93;;;6.53;;
24826;SDS011;12910;57.690;11.974;2022-08-19T10:26:30;6.90;;;6.35;;
24826;SDS011;12910;57.690;11.974;2022-08-19T10:29:03;7.32;;;6.82;;
24826;SDS011;12910;57.690;11.974;2022-08-19T10:31:30;6.97;;;6.57;;
24826;SDS011;12910;57.690;11.974;2022-08-19T10:33:59;6.47;;;6.10;;
24826;SDS011;12910;57.690;11.974;2022-08-19T10:36:30;6.68;;;6.07;;
24826;SDS011;12910;57.690;11.974;2022-08-19T10:39:00;6.45;;;6.05;;
24826;SDS011;12910;57.690;11.974;2022-08-19T10:41:33;6.68;;;6.25;;
24826;SDS011;12910;57.690;11.974;2022-08-19T10:44:07;7.40;;;6.40;;
24826;SDS011;12910;57.690;11.974;2022-08-19T10:46:37;6.93;;;6.53;;
24826;SDS011;12910;57.690;11.974;2022-08-19T10:49:07;11.05;;;5.72;;
24826;SDS011;12910;57.690;11.974;2022-08-19T10:51:35;8.55;;;6.07;;
24826;SDS011;12910;57.690;11.974;2022-08-19T10:54:22;7.60;;;5.97;;
24826;SDS011;12910;57.690;11.974;2022-08-19T10:57:09;6.68;;;6.28;;
24826;SDS011;12910;57.690;11.974;2022-08-19T10:59:36;6.45;;;5.63;;
24826;SDS011;12910;57.690;11.974;2022-08-19T11:02:06;6.88;;;6.55;;
24826;SDS011;12910;57.690;11.974;2022-08-19T11:04:38;6.88;;;6.30;;
24826;SDS011;12910;57.690;11.974;2022-08-19T11:07:05;6.85;;;6.55;;
24826;SDS011;12910;57.690;11.974;2022-08-19T11:09:40;6.07;;;5.13;;
24826;SDS011;12910;57.690;11.974;2022-08-19T11:12:07;4.93;;;4.57;;
24826;SDS011;12910;57.690;11.974;2022-08-19T11:14:34;5.57;;;5.28;;
24826;SDS011;12910;57.690;11.974;2022-08-19T11:17:01;9.35;;;5.30;;
24826;SDS011;12910;57.690;11.974;2022-08-19T11:19:28;6.82;;;6.28;;
24826;SDS011;12910;57.690;11.974;2022-08-19T11:21:54;6.38;;;5.82;;
24826;SDS011;12910;57.690;11.974;2022-08-19T11:24:21;5.80;;;5.50;;
24826;SDS011;12910;57.690;11.974;2022-08-19T11:26:49;6.70;;;5.85;;
24826;SDS011;12910;57.690;11.974;2022-08-19T11:29:17;6.10;;;5.22;;
24826;SDS011;12910;57.690;11.974;2022-08-19T11:31:47;6.07;;;5.60;;
24826;SDS011;12910;57.690;11.974;2022-08-19T11:34:19;5.80;;;5.30;;
24826;SDS011;12910;57.690;11.974;2022-08-19T11:36:48;4.53;;;4.22;;
24826;SDS011;12910;57.690;11.974;2022-08-19T11:39:17;5.07;;;4.57;;
24826;SDS011;12910;57.690;11.974;2022-08-19T11:41:45;6.15;;;5.85;;
24826;SDS011;12910;57.690;11.974;2022-08-19T11:44:11;6.88;;;4.57;;
24826;SDS011;12910;57.690;11.974;2022-08-19T11:46:39;5.50;;;5.00;;
24826;SDS011;12910;57.690;11.974;2022-08-19T11:49:08;4.35;;;4.05;;
24826;SDS011;12910;57.690;11.974;2022-08-19T11:51:37;5.00;;;4.63;;
24826;SDS011;12910;57.690;11.974;2022-08-19T11:54:05;16.33;;;7.18;;
24826;SDS011;12910;57.690;11.974;2022-08-19T11:56:36;5.82;;;5.50;;
24826;SDS011;12910;57.690;11.974;2022-08-19T11:59:02;5.95;;;5.40;;
24826;SDS011;12910;57.690;11.974;2022-08-19T12:01:28;7.57;;;5.20;;
24826;SDS011;12910;57.690;11.974;2022-08-19T12:03:55;5.55;;;5.25;;
24826;SDS011;12910;57.690;11.974;2022-08-19T12:06:23;6.28;;;5.82;;
24826;SDS011;12910;57.690;11.974;2022-08-19T12:08:53;6.50;;;6.10;;
24826;SDS011;12910;57.690;11.974;2022-08-19T12:11:20;5.72;;;5.22;;
24826;SDS011;12910;57.690;11.974;2022-08-19T12:13:47;7.32;;;5.78;;
24826;SDS011;12910;57.690;11.974;2022-08-19T12:16:17;8.88;;;5.40;;
24826;SDS011;12910;57.690;11.974;2022-08-19T12:18:45;6.30;;;5.90;;
24826;SDS011;12910;57.690;11.974;2022-08-19T12:21:13;6.05;;;5.65;;
24826;SDS011;12910;57.690;11.974;2022-08-19T12:23:40;5.80;;;5.50;;
24826;SDS011;12910;57.690;11.974;2022-08-19T12:26:09;7.72;;;7.13;;
24826;SDS011;12910;57.690;11.974;2022-08-19T12:28:35;8.80;;;6.05;;
24826;SDS011;12910;57.690;11.974;2022-08-19T12:31:01;6.40;;;5.80;;
24826;SDS011;12910;57.690;11.974;2022-08-19T12:33:26;7.57;;;5.10;;
24826;SDS011;12910;57.690;11.974;2022-08-19T12:35:53;8.73;;;5.85;;
24826;SDS011;12910;57.690;11.974;2022-08-19T12:38:19;5.93;;;5.63;;
24826;SDS011;12910;57.690;11.974;2022-08-19T12:40:49;5.80;;;5.30;;
24826;SDS011;12910;57.690;11.974;2022-08-19T12:43:17;6.70;;;6.22;;
24826;SDS011;12910;57.690;11.974;2022-08-19T12:45:43;10.38;;;6.43;;
24826;SDS011;12910;57.690;11.974;2022-08-19T12:48:10;3.80;;;3.60;;
24826;SDS011;12910;57.690;11.974;2022-08-19T12:50:38;3.53;;;3.13;;
24826;SDS011;12910;57.690;11.974;2022-08-19T12:53:04;3.70;;;3.50;;
24826;SDS011;12910;57.690;11.974;2022-08-19T12:55:29;3.92;;;3.63;;
24826;SDS011;12910;57.690;11.974;2022-08-19T12:57:55;3.83;;;3.53;;
24826;SDS011;12910;57.690;11.974;2022-08-19T13:00:21;2.95;;;2.67;;
24826;SDS011;12910;57.690;11.974;2022-08-19T13:02:48;2.60;;;2.40;;
24826;SDS011;12910;57.690;11.974;2022-08-19T13:05:21;2.13;;;2.03;;
24826;SDS011;12910;57.690;11.974;2022-08-19T13:07:48;2.70;;;2.50;;
24826;SDS011;12910;57.690;11.974;2022-08-19T13:10:16;2.30;;;2.10;;
24826;SDS011;12910;57.690;11.974;2022-08-19T13:12:45;2.90;;;2.60;;
24826;SDS011;12910;57.690;11.974;2022-08-19T13:15:12;2.70;;;2.50;;
24826;SDS011;12910;57.690;11.974;2022-08-19T13:17:39;4.60;;;2.00;;
24826;SDS011;12910;57.690;11.974;2022-08-19T13:20:06;2.65;;;2.13;;
24826;SDS011;12910;57.690;11.974;2022-08-19T13:22:35;3.40;;;2.80;;
24826;SDS011;12910;57.690;11.974;2022-08-19T13:25:02;2.60;;;1.80;;
24826;SDS011;12910;57.690;11.974;2022-08-19T13:27:28;5.38;;;2.17;;
24826;SDS011;12910;57.690;11.974;2022-08-19T13:29:54;2.67;;;2.45;;
24826;SDS011;12910;57.690;11.974;2022-08-19T13:32:38;5.28;;;2.42;;
24826;SDS011;12910;57.690;11.974;2022-08-19T13:35:22;2.80;;;2.30;;
24826;SDS011;12910;57.690;11.974;2022-08-19T13:37:48;5.35;;;2.13;;
24826;SDS011;12910;57.690;11.974;2022-08-19T13:40:14;2.97;;;2.10;;
24826;SDS011;12910;57.690;11.974;2022-08-19T13:42:44;2.38;;;2.10;;
24826;SDS011;12910;57.690;11.974;2022-08-19T13:45:12;3.53;;;1.75;;
24826;SDS011;12910;57.690;11.974;2022-08-19T13:47:40;11.30;;;1.85;;
24826;SDS011;12910;57.690;11.974;2022-08-19T13:50:08;2.40;;;1.48;;
24826;SDS011;12910;57.690;11.974;2022-08-19T13:52:36;1.75;;;1.65;;
24826;SDS011;12910;57.690;11.974;2022-08-19T13:55:02;2.42;;;2.22;;
24826;SDS011;12910;57.690;11.974;2022-08-19T13:57:29;2.00;;;1.70;;
24826;SDS011;12910;57.690;11.974;2022-08-19T13:59:55;3.30;;;1.52;;
24826;SDS011;12910;57.690;11.974;2022-08-19T14:02:22;4.93;;;1.48;;
24826;SDS011;12910;57.690;11.974;2022-08-19T14:04:47;1.55;;;1.45;;
24826;SDS011;12910;57.690;11.974;2022-08-19T14:07:12;2.40;;;1.60;;
24826;SDS011;12910;57.690;11.974;2022-08-19T14:09:39;2.55;;;1.38;;
24826;SDS011;12910;57.690;11.974;2022-08-19T14:12:04;2.78;;;2.30;;
24826;SDS011;12910;57.690;11.974;2022-08-19T14:14:30;1.52;;;1.42;;
24826;SDS011;12910;57.690;11.974;2022-08-19T14:16:55;2.58;;;1.88;;
24826;SDS011;12910;57.690;11.974;2022-08-19T14:19:20;5.50;;;1.58;;
24826;SDS011;12910;57.690;11.974;2022-08-19T14:21:46;1.52;;;1.17;;
24826;SDS011;12910;57.690;11.974;2022-08-19T14:24:11;1.52;;;1.42;;
24826;SDS011;12910;57.690;11.974;2022-08-19T14:26:37;1.92;;;1.73;;
24826;SDS011;12910;57.690;11.974;2022-08-19T14:29:03;2.65;;;1.35;;
24826;SDS011;12910;57.690;11.974;2022-08-19T14:31:28;1.77;;;1.58;;
24826;SDS011;12910;57.690;11.974;2022-08-19T14:33:54;3.75;;;1.42;;
24826;SDS011;12910;57.690;11.974;2022-08-19T14:36:20;1.30;;;1.20;;
24826;SDS011;12910;57.690;11.974;2022-08-19T14:38:46;1.92;;;1.52;;
24826;SDS011;12910;57.690;11.974;2022-08-19T14:41:16;2.10;;;1.40;;
24826;SDS011;12910;57.690;11.974;2022-08-19T14:43:45;1.42;;;1.20;;